createdAt,value
2023-02-24T00:01:39.377Z,20.22
2023-02-24T00:04:09.388Z,20.22
2023-02-24T00:06:36.875Z,20.21
2023-02-24T00:09:06.168Z,20.20
2023-02-24T00:11:33.101Z,20.20
2023-02-24T00:13:59.882Z,20.19
2023-02-24T00:16:27.241Z,20.19
2023-02-24T00:18:53.659Z,20.18
2023-02-24T00:21:20.308Z,20.18
2023-02-24T00:23:46.848Z,20.17
2023-02-24T00:26:13.640Z,20.18
2023-02-24T00:28:40.514Z,20.17
2023-02-24T00:31:10.930Z,20.17
2023-02-24T00:33:39.344Z,20.16
2023-02-24T00:36:09.988Z,20.14
2023-02-24T00:38:36.546Z,20.15
2023-02-24T00:41:08.230Z,20.14
2023-02-24T00:43:37.276Z,20.14
2023-02-24T00:46:10.902Z,20.13
2023-02-24T00:48:40.505Z,20.12
2023-02-24T00:51:10.120Z,20.12
2023-02-24T00:53:38.300Z,20.10
2023-02-24T00:56:07.662Z,20.09
2023-02-24T00:58:37.039Z,20.09
2023-02-24T01:01:04.765Z,20.09
2023-02-24T01:03:32.401Z,20.08
2023-02-24T01:06:04.432Z,20.07
2023-02-24T01:08:30.801Z,20.07
2023-02-24T01:11:18.379Z,20.06
2023-02-24T01:13:45.436Z,20.05
2023-02-24T01:16:14.484Z,20.04
2023-02-24T01:18:41.315Z,20.05
2023-02-24T01:21:08.840Z,20.05
2023-02-24T01:23:35.723Z,20.05
2023-02-24T01:26:02.476Z,20.05
2023-02-24T01:28:28.831Z,20.07
2023-02-24T01:30:55.281Z,20.08
2023-02-24T01:33:23.848Z,20.10
2023-02-24T01:35:50.313Z,20.12
2023-02-24T01:38:23.006Z,20.12
2023-02-24T01:40:56.148Z,20.13
2023-02-24T01:43:22.556Z,20.14
2023-02-24T01:45:51.708Z,20.14
2023-02-24T01:48:18.045Z,20.14
2023-02-24T01:50:45.179Z,20.15
2023-02-24T01:53:11.520Z,20.13
2023-02-24T01:55:41.056Z,20.14
2023-02-24T01:58:09.544Z,20.14
2023-02-24T02:00:38.958Z,20.12
2023-02-24T02:03:08.146Z,20.10
2023-02-24T02:05:34.597Z,20.10
2023-02-24T02:08:03.317Z,20.08
2023-02-24T02:10:29.685Z,20.08
2023-02-24T02:12:56.179Z,20.08
2023-02-24T02:15:22.618Z,20.07
2023-02-24T02:18:15.338Z,20.06
2023-02-24T02:21:03.240Z,20.04
2023-02-24T02:23:45.744Z,20.03
2023-02-24T02:26:19.995Z,20.03
2023-02-24T02:29:07.022Z,20.03
2023-02-24T02:35:52.281Z,20.01
2023-02-24T02:38:18.596Z,20.01
2023-02-24T02:40:48.679Z,20.00
2023-02-24T02:43:19.421Z,20.00
2023-02-24T02:45:49.682Z,19.99
2023-02-24T02:48:31.067Z,19.97
2023-02-24T02:51:04.052Z,19.97
2023-02-24T02:53:32.672Z,19.95
2023-02-24T02:56:08.130Z,19.95
2023-02-24T02:58:35.161Z,19.94
2023-02-24T03:01:02.533Z,19.95
2023-02-24T03:03:33.926Z,19.96
2023-02-24T03:06:09.521Z,19.96
2023-02-24T03:08:37.215Z,19.96
2023-02-24T03:11:05.130Z,19.97
2023-02-24T03:13:31.896Z,19.99
2023-02-24T03:16:03.313Z,20.00
2023-02-24T03:18:33.852Z,20.01
2023-02-24T03:21:07.638Z,20.01
2023-02-24T03:23:40.706Z,20.02
2023-02-24T03:26:16.780Z,20.02
2023-02-24T03:28:48.755Z,20.03
2023-02-24T03:31:15.115Z,20.02
2023-02-24T03:33:41.993Z,20.02
2023-02-24T03:36:08.412Z,20.02
2023-02-24T03:38:38.513Z,20.02
2023-02-24T03:41:11.084Z,20.02
2023-02-24T03:43:47.552Z,20.01
2023-02-24T03:46:15.078Z,20.00
2023-02-24T03:48:46.218Z,20.01
2023-02-24T03:51:16.455Z,20.03
2023-02-24T03:54:03.360Z,20.04
2023-02-24T03:56:50.474Z,20.05
2023-02-24T03:59:23.631Z,20.05
2023-02-24T04:01:58.246Z,20.05
2023-02-24T04:04:37.926Z,20.06
2023-02-24T04:07:13.555Z,20.07
2023-02-24T04:09:40.077Z,20.08
2023-02-24T04:12:18.703Z,20.06
2023-02-24T04:14:49.941Z,20.07
2023-02-24T04:17:20.982Z,20.07
2023-02-24T04:19:49.076Z,20.06
2023-02-24T04:22:17.869Z,20.06
2023-02-24T04:24:44.302Z,20.07
2023-02-24T04:27:11.421Z,20.08
2023-02-24T04:29:41.500Z,20.09
2023-02-24T04:32:08.665Z,20.08
2023-02-24T04:34:37.229Z,20.10
2023-02-24T04:37:03.703Z,20.09
2023-02-24T04:39:30.782Z,20.08
2023-02-24T04:41:59.631Z,20.09
2023-02-24T04:44:28.141Z,20.09
2023-02-24T04:46:55.971Z,20.08
2023-02-24T04:49:22.295Z,20.09
2023-02-24T04:51:48.624Z,20.08
2023-02-24T04:54:17.268Z,20.08
2023-02-24T04:56:44.824Z,20.08
2023-02-24T04:59:11.385Z,20.09
2023-02-24T05:01:41.001Z,20.10
2023-02-24T05:04:08.319Z,20.08
2023-02-24T05:06:34.843Z,20.11
2023-02-24T05:09:14.023Z,20.10
2023-02-24T05:11:42.269Z,20.09
2023-02-24T05:14:09.486Z,20.09
2023-02-24T05:16:36.088Z,20.08
2023-02-24T05:19:21.268Z,20.11
2023-02-24T05:21:47.923Z,20.11
2023-02-24T05:24:17.113Z,20.11
2023-02-24T05:26:43.434Z,20.13
2023-02-24T05:29:10.929Z,20.12
2023-02-24T05:31:37.563Z,20.14
2023-02-24T05:34:07.642Z,20.14
2023-02-24T05:36:39.338Z,20.13
2023-02-24T05:39:12.146Z,20.14
2023-02-24T05:41:39.268Z,20.14
2023-02-24T05:44:08.542Z,20.13
2023-02-24T05:46:36.345Z,20.12
2023-02-24T05:49:04.001Z,20.12
2023-02-24T05:51:35.178Z,20.13
2023-02-24T05:54:04.473Z,20.12
2023-02-24T05:56:31.907Z,20.12
2023-02-24T05:59:04.435Z,20.11
2023-02-24T06:01:31.658Z,20.10
2023-02-24T06:04:07.388Z,20.09
2023-02-24T06:06:35.156Z,20.08
2023-02-24T06:09:09.976Z,20.09
2023-02-24T06:11:36.671Z,20.08
2023-02-24T06:14:03.179Z,20.06
2023-02-24T06:16:29.955Z,20.05
2023-02-24T06:18:57.884Z,20.09
2023-02-24T06:21:24.960Z,20.12
2023-02-24T06:23:51.275Z,20.15
2023-02-24T06:26:19.561Z,20.12
2023-02-24T06:28:46.375Z,20.05
2023-02-24T06:31:13.977Z,18.24
2023-02-24T06:33:40.839Z,18.92
2023-02-24T06:36:07.173Z,19.36
2023-02-24T06:38:34.017Z,19.65
2023-02-24T06:41:03.108Z,19.67
2023-02-24T06:43:32.133Z,19.76
2023-02-24T06:45:59.416Z,19.75
2023-02-24T06:48:25.946Z,19.80
2023-02-24T06:50:52.281Z,18.40
2023-02-24T06:53:18.669Z,17.22
2023-02-24T06:55:46.456Z,16.66
2023-02-24T06:58:16.788Z,16.34
2023-02-24T07:00:45.830Z,17.36
2023-02-24T07:03:15.956Z,18.20
2023-02-24T07:05:42.821Z,18.66
2023-02-24T07:08:09.292Z,18.91
2023-02-24T07:10:35.616Z,18.97
2023-02-24T07:13:01.942Z,19.03
2023-02-24T07:15:31.948Z,19.03
2023-02-24T07:17:58.272Z,19.05
2023-02-24T07:20:26.122Z,19.12
2023-02-24T07:22:52.464Z,19.15
2023-02-24T07:25:33.151Z,19.17
2023-02-24T07:28:01.833Z,19.20
2023-02-24T07:30:29.958Z,19.28
2023-02-24T07:32:56.880Z,19.39
2023-02-24T07:35:23.909Z,19.77
2023-02-24T07:37:50.234Z,20.14
2023-02-24T07:40:17.453Z,20.40
2023-02-24T07:42:43.927Z,20.63
2023-02-24T07:45:10.531Z,20.74
2023-02-24T07:47:36.956Z,20.83
2023-02-24T07:50:03.287Z,20.85
2023-02-24T07:52:32.521Z,20.93
2023-02-24T07:55:00.162Z,21.00
2023-02-24T07:57:28.818Z,21.01
2023-02-24T07:59:55.170Z,21.08
2023-02-24T08:02:23.739Z,21.13
2023-02-24T08:04:51.403Z,21.17
2023-02-24T08:07:24.580Z,21.20
2023-02-24T08:10:10.483Z,21.24
2023-02-24T08:12:38.672Z,21.28
2023-02-24T08:15:16.926Z,21.31
2023-02-24T08:17:43.754Z,21.39
2023-02-24T08:20:13.039Z,21.36
2023-02-24T08:22:46.796Z,21.32
2023-02-24T08:25:18.912Z,21.36
2023-02-24T08:27:48.003Z,21.27
2023-02-24T08:30:23.889Z,21.17
2023-02-24T08:32:56.883Z,21.12
2023-02-24T08:35:31.849Z,21.09
2023-02-24T08:38:18.510Z,21.27
2023-02-24T08:40:52.133Z,21.25
2023-02-24T08:43:32.518Z,21.25
2023-02-24T08:45:59.515Z,21.27
2023-02-24T08:48:48.324Z,21.26
2023-02-24T08:51:35.265Z,21.49
2023-02-24T08:54:11.614Z,21.56
2023-02-24T08:56:46.982Z,21.53
2023-02-24T08:59:32.373Z,21.38
2023-02-24T09:02:18.242Z,21.57
2023-02-24T09:04:48.398Z,21.72
2023-02-24T09:07:18.370Z,21.70
2023-02-24T09:09:45.313Z,21.50
2023-02-24T09:12:21.834Z,21.40
2023-02-24T09:14:49.505Z,21.37
2023-02-24T09:17:23.673Z,21.36
2023-02-24T09:19:50.191Z,21.46
2023-02-24T09:22:32.411Z,21.01
2023-02-24T09:25:20.485Z,20.87
2023-02-24T09:27:56.279Z,20.78
2023-02-24T09:30:36.306Z,20.86
2023-02-24T09:33:18.822Z,20.89
2023-02-24T09:35:48.522Z,20.92
2023-02-24T09:38:17.471Z,20.91
2023-02-24T09:40:53.476Z,20.91
2023-02-24T09:43:21.105Z,20.91
2023-02-24T09:45:53.605Z,20.92
2023-02-24T09:48:32.261Z,20.92
2023-02-24T09:51:05.176Z,20.92
2023-02-24T09:53:49.225Z,20.92
2023-02-24T09:56:37.119Z,20.92
2023-02-24T09:59:12.669Z,20.91
2023-02-24T10:02:02.179Z,20.93
2023-02-24T10:04:49.120Z,20.95
2023-02-24T10:07:16.537Z,20.95
2023-02-24T10:09:43.989Z,20.93
2023-02-24T10:12:18.879Z,20.93
2023-02-24T10:15:16.107Z,20.94
2023-02-24T10:17:47.218Z,20.92
2023-02-24T10:20:28.699Z,20.92
2023-02-24T10:22:57.995Z,20.92
2023-02-24T10:25:36.070Z,20.48
2023-02-24T10:28:25.543Z,20.37
2023-02-24T10:31:10.919Z,20.63
2023-02-24T10:33:38.898Z,20.77
2023-02-24T10:36:09.048Z,20.80
2023-02-24T10:38:36.321Z,20.77
2023-02-24T10:41:06.085Z,20.85
2023-02-24T10:43:33.557Z,20.88
2023-02-24T10:46:06.979Z,20.87
2023-02-24T10:48:41.888Z,20.99
2023-02-24T10:51:19.650Z,21.03
2023-02-24T10:53:53.169Z,21.05
2023-02-24T10:56:41.467Z,21.04
2023-02-24T10:59:24.834Z,20.96
2023-02-24T11:01:55.622Z,21.01
2023-02-24T11:04:33.555Z,20.99
2023-02-24T11:07:09.880Z,21.02
2023-02-24T11:09:44.018Z,21.01
2023-02-24T11:12:29.024Z,20.98
2023-02-24T11:15:14.521Z,20.95
2023-02-24T11:17:46.983Z,20.93
2023-02-24T11:20:17.294Z,21.03
2023-02-24T11:22:43.710Z,21.04
2023-02-24T11:25:14.456Z,21.08
2023-02-24T11:27:44.248Z,21.11
2023-02-24T11:30:23.655Z,21.14
2023-02-24T11:32:50.197Z,21.19
2023-02-24T11:35:27.191Z,21.13
2023-02-24T11:37:53.446Z,21.17
2023-02-24T11:40:26.508Z,21.16
2023-02-24T11:42:56.961Z,21.16
2023-02-24T11:45:31.307Z,21.11
2023-02-24T11:47:59.517Z,21.11
2023-02-24T11:50:31.342Z,21.09
2023-02-24T11:52:58.658Z,21.14
2023-02-24T11:55:32.404Z,21.14
2023-02-24T11:58:03.181Z,21.16
2023-02-24T12:00:31.148Z,21.07
2023-02-24T12:03:04.295Z,21.17
2023-02-24T12:05:49.044Z,21.26
2023-02-24T12:08:20.234Z,21.08
2023-02-24T12:10:48.612Z,21.22
2023-02-24T12:13:14.954Z,21.19
2023-02-24T12:15:42.855Z,21.14
2023-02-24T12:18:30.720Z,21.16
2023-02-24T12:21:05.554Z,21.18
2023-02-24T12:23:35.615Z,21.17
2023-02-24T12:26:24.072Z,21.16
2023-02-24T12:28:58.758Z,21.15
2023-02-24T12:31:32.166Z,21.19
2023-02-24T12:34:11.828Z,21.15
2023-02-24T12:36:46.694Z,21.16
2023-02-24T12:39:28.357Z,21.22
2023-02-24T12:42:27.420Z,21.08
2023-02-24T12:44:56.421Z,21.11
2023-02-24T12:47:25.568Z,21.18
2023-02-24T12:49:55.849Z,21.24
2023-02-24T12:52:34.420Z,21.10
2023-02-24T12:55:01.199Z,20.97
2023-02-24T12:57:31.286Z,20.99
2023-02-24T12:59:59.392Z,21.01
2023-02-24T13:02:29.089Z,21.08
2023-02-24T13:04:58.253Z,21.10
2023-02-24T13:07:41.853Z,21.12
2023-02-24T13:10:26.873Z,21.14
2023-02-24T13:13:10.813Z,21.14
2023-02-24T13:15:37.254Z,21.14
2023-02-24T13:18:03.601Z,21.14
2023-02-24T13:20:31.372Z,21.13
2023-02-24T13:22:58.817Z,21.15
2023-02-24T13:25:28.545Z,21.15
2023-02-24T13:28:04.651Z,21.13
2023-02-24T13:30:38.355Z,21.12
2023-02-24T13:33:04.756Z,21.11
2023-02-24T13:35:32.146Z,21.09
2023-02-24T13:38:07.036Z,21.07
2023-02-24T13:41:25.476Z,21.06
2023-02-24T13:43:54.820Z,21.07
2023-02-24T13:46:21.226Z,21.06
2023-02-24T13:48:50.658Z,21.06
2023-02-24T13:51:35.846Z,21.06
2023-02-24T13:54:21.076Z,21.06
2023-02-24T13:57:07.482Z,21.05
2023-02-24T13:59:39.864Z,21.05
2023-02-24T14:02:12.147Z,21.04
2023-02-24T14:04:39.424Z,21.04
2023-02-24T14:07:09.233Z,21.04
2023-02-24T14:09:45.372Z,21.04
2023-02-24T14:12:14.638Z,21.01
2023-02-24T14:14:42.548Z,20.99
2023-02-24T14:17:18.997Z,20.99
2023-02-24T14:19:45.347Z,20.99
2023-02-24T14:22:17.686Z,20.98
2023-02-24T14:24:44.021Z,20.98
2023-02-24T14:27:17.190Z,20.97
2023-02-24T14:29:44.571Z,20.97
2023-02-24T14:32:18.465Z,20.98
2023-02-24T14:34:45.589Z,20.98
2023-02-24T14:37:17.809Z,20.98
2023-02-24T14:39:52.880Z,20.98
2023-02-24T14:42:20.151Z,20.97
2023-02-24T14:44:50.555Z,20.97
2023-02-24T14:47:17.350Z,20.96
2023-02-24T14:49:51.741Z,20.95
2023-02-24T14:52:35.039Z,20.93
2023-02-24T14:55:07.704Z,20.93
2023-02-24T14:57:42.671Z,20.93
2023-02-24T15:00:12.691Z,20.93
2023-02-24T15:02:42.846Z,20.93
2023-02-24T15:05:09.189Z,20.93
2023-02-24T15:07:35.518Z,20.95
2023-02-24T15:10:02.113Z,20.94
2023-02-24T15:12:35.367Z,20.95
2023-02-24T15:15:06.096Z,20.96
2023-02-24T15:17:32.422Z,20.95
2023-02-24T15:19:58.743Z,20.93
2023-02-24T15:22:26.101Z,20.93
2023-02-24T15:24:53.118Z,20.92
2023-02-24T15:27:20.673Z,20.91
2023-02-24T15:29:56.866Z,20.90
2023-02-24T15:32:23.558Z,20.90
2023-02-24T15:34:50.016Z,20.90
2023-02-24T15:37:17.102Z,20.91
2023-02-24T15:39:43.722Z,20.91
2023-02-24T15:42:16.155Z,20.91
2023-02-24T15:44:55.616Z,20.93
2023-02-24T15:47:23.285Z,20.93
2023-02-24T15:49:49.712Z,20.92
2023-02-24T15:52:17.250Z,20.92
2023-02-24T15:54:43.625Z,20.92
2023-02-24T15:57:10.081Z,20.92
2023-02-24T15:59:36.407Z,20.91
2023-02-24T16:02:02.814Z,20.90
2023-02-24T16:04:29.264Z,20.89
2023-02-24T16:06:56.396Z,20.89
2023-02-24T16:09:26.984Z,20.89
2023-02-24T16:11:53.336Z,20.90
2023-02-24T16:14:19.659Z,20.90
2023-02-24T16:16:46.047Z,20.90
2023-02-24T16:19:13.334Z,20.90
2023-02-24T16:21:39.689Z,20.90
2023-02-24T16:24:06.076Z,20.92
2023-02-24T16:26:33.810Z,20.91
2023-02-24T16:29:00.153Z,20.92
2023-02-24T16:31:26.768Z,20.91
2023-02-24T16:33:55.298Z,20.90
2023-02-24T16:36:23.166Z,20.90
2023-02-24T16:38:52.507Z,20.89
2023-02-24T16:41:19.061Z,20.89
2023-02-24T16:43:45.435Z,20.88
2023-02-24T16:46:13.295Z,20.89
2023-02-24T16:48:39.689Z,20.90
2023-02-24T16:51:06.431Z,20.91
2023-02-24T16:53:32.780Z,20.91
2023-02-24T16:55:59.144Z,20.90
2023-02-24T16:58:25.684Z,20.91
2023-02-24T17:00:53.305Z,20.92
2023-02-24T17:03:22.798Z,20.92
2023-02-24T17:05:49.265Z,20.91
2023-02-24T17:08:15.753Z,20.91
2023-02-24T17:10:43.611Z,20.91
2023-02-24T17:13:13.752Z,20.90
2023-02-24T17:15:40.154Z,20.89
2023-02-24T17:18:06.521Z,20.88
2023-02-24T17:20:32.851Z,20.89
2023-02-24T17:22:59.179Z,20.89
2023-02-24T17:25:26.269Z,20.90
2023-02-24T17:27:52.798Z,20.89
2023-02-24T17:30:20.109Z,20.73
2023-02-24T17:32:46.479Z,20.42
2023-02-24T17:35:12.845Z,20.56
2023-02-24T17:37:39.192Z,20.90
2023-02-24T17:40:06.776Z,21.15
2023-02-24T17:42:33.649Z,21.42
2023-02-24T17:45:00.142Z,21.54
2023-02-24T17:47:32.999Z,21.59
2023-02-24T17:49:59.341Z,21.57
2023-02-24T17:52:25.912Z,21.49
2023-02-24T17:54:52.250Z,21.17
2023-02-24T17:57:21.332Z,21.44
2023-02-24T17:59:47.656Z,21.62
2023-02-24T18:02:14.328Z,21.73
2023-02-24T18:04:40.691Z,21.57
2023-02-24T18:07:07.625Z,21.52
2023-02-24T18:09:33.945Z,21.45
2023-02-24T18:12:00.573Z,21.23
2023-02-24T18:14:26.896Z,21.20
2023-02-24T18:16:53.223Z,21.27
2023-02-24T18:19:19.557Z,21.50
2023-02-24T18:21:45.880Z,21.60
2023-02-24T18:24:12.209Z,21.64
2023-02-24T18:26:39.342Z,21.66
2023-02-24T18:29:05.700Z,21.50
2023-02-24T18:31:33.244Z,21.42
2023-02-24T18:33:59.697Z,21.43
2023-02-24T18:36:26.086Z,21.42
2023-02-24T18:38:52.606Z,21.40
2023-02-24T18:41:20.485Z,21.47
2023-02-24T18:43:50.177Z,21.55
2023-02-24T18:46:16.705Z,21.45
2023-02-24T18:48:44.483Z,21.48
2023-02-24T18:51:11.318Z,21.62
2023-02-24T18:53:37.672Z,21.54
2023-02-24T18:56:04.772Z,21.33
2023-02-24T18:58:31.131Z,20.99
2023-02-24T19:00:57.541Z,21.05
2023-02-24T19:03:23.860Z,21.11
2023-02-24T19:05:50.184Z,21.14
2023-02-24T19:08:16.512Z,21.16
2023-02-24T19:10:43.629Z,21.17
2023-02-24T19:13:10.346Z,21.17
2023-02-24T19:15:37.172Z,21.15
2023-02-24T19:18:03.559Z,21.13
2023-02-24T19:20:29.885Z,21.11
2023-02-24T19:22:56.250Z,21.07
2023-02-24T19:25:22.574Z,21.06
2023-02-24T19:27:48.895Z,21.02
2023-02-24T19:30:15.295Z,21.02
2023-02-24T19:32:41.735Z,21.04
2023-02-24T19:35:08.124Z,21.01
2023-02-24T19:37:34.589Z,21.00
2023-02-24T19:40:00.935Z,21.03
2023-02-24T19:42:27.265Z,21.01
2023-02-24T19:44:53.598Z,20.99
2023-02-24T19:47:19.923Z,20.99
2023-02-24T19:49:46.287Z,20.97
2023-02-24T19:52:12.646Z,20.94
2023-02-24T19:54:38.992Z,20.91
2023-02-24T19:57:05.418Z,20.91
2023-02-24T19:59:31.801Z,20.89
2023-02-24T20:01:58.131Z,20.88
2023-02-24T20:04:24.519Z,20.87
2023-02-24T20:06:50.846Z,20.87
2023-02-24T20:09:17.824Z,20.85
2023-02-24T20:11:44.649Z,20.73
2023-02-24T20:14:11.324Z,20.61
2023-02-24T20:16:38.160Z,20.70
2023-02-24T20:19:05.926Z,20.77
2023-02-24T20:21:32.311Z,20.81
2023-02-24T20:23:59.675Z,20.82
2023-02-24T20:26:26.014Z,20.81
2023-02-24T20:28:52.396Z,20.84
2023-02-24T20:31:19.379Z,20.83
2023-02-24T20:33:45.920Z,20.80
2023-02-24T20:36:12.950Z,20.79
2023-02-24T20:38:39.297Z,20.77
2023-02-24T20:41:05.650Z,20.77
2023-02-24T20:43:31.986Z,20.76
2023-02-24T20:45:58.501Z,20.76
2023-02-24T20:48:24.852Z,20.76
2023-02-24T20:50:51.184Z,20.77
2023-02-24T20:53:17.527Z,20.76
2023-02-24T20:55:44.661Z,20.76
2023-02-24T20:58:11.085Z,20.74
2023-02-24T21:00:39.915Z,20.74
2023-02-24T21:03:11.782Z,20.72
2023-02-24T21:05:38.742Z,20.72
2023-02-24T21:08:05.057Z,20.73
2023-02-24T21:10:31.372Z,20.73
2023-02-24T21:12:57.701Z,20.73
2023-02-24T21:15:24.031Z,20.73
2023-02-24T21:17:50.352Z,20.72
2023-02-24T21:20:16.685Z,20.73
2023-02-24T21:22:43.025Z,20.72
2023-02-24T21:25:10.715Z,20.72
2023-02-24T21:27:37.345Z,20.71
2023-02-24T21:30:04.677Z,20.70
2023-02-24T21:32:31.127Z,20.68
2023-02-24T21:34:57.599Z,20.68
2023-02-24T21:37:23.940Z,20.66
2023-02-24T21:39:50.313Z,20.66
2023-02-24T21:42:16.674Z,20.64
2023-02-24T21:44:44.562Z,20.64
2023-02-24T21:47:11.072Z,20.62
2023-02-24T21:49:37.418Z,20.61
2023-02-24T21:52:05.433Z,20.60
2023-02-24T21:54:32.134Z,20.60
2023-02-24T21:56:58.471Z,20.58
2023-02-24T21:59:24.807Z,20.57
2023-02-24T22:01:51.254Z,20.55
2023-02-24T22:04:18.101Z,20.53
2023-02-24T22:06:47.422Z,20.52
2023-02-24T22:09:19.344Z,20.53
2023-02-24T22:11:46.012Z,20.51
2023-02-24T22:14:12.540Z,20.47
2023-02-24T22:16:39.017Z,20.46
2023-02-24T22:19:05.515Z,20.48
2023-02-24T22:21:31.899Z,20.49
2023-02-24T22:23:59.398Z,20.48
2023-02-24T22:26:26.664Z,20.46
2023-02-24T22:28:53.945Z,20.45
2023-02-24T22:31:23.180Z,20.46
2023-02-24T22:33:49.569Z,20.46
2023-02-24T22:36:16.612Z,20.46
2023-02-24T22:38:42.951Z,20.43
2023-02-24T22:41:13.143Z,20.41
2023-02-24T22:43:40.054Z,20.39
2023-02-24T22:46:07.086Z,20.38
2023-02-24T22:48:33.833Z,20.38
2023-02-24T22:51:01.051Z,20.45
2023-02-24T22:53:28.001Z,20.46
2023-02-24T22:55:54.330Z,20.46
2023-02-24T22:58:20.845Z,20.47
2023-02-24T23:00:47.275Z,20.43
2023-02-24T23:03:14.483Z,20.40
2023-02-24T23:05:40.940Z,20.37
2023-02-24T23:08:07.757Z,20.35
2023-02-24T23:10:34.302Z,20.33
2023-02-24T23:13:00.652Z,20.32
2023-02-24T23:15:26.994Z,20.31
2023-02-24T23:17:53.318Z,20.32
2023-02-24T23:20:19.702Z,20.30
2023-02-24T23:22:46.038Z,20.28
2023-02-24T23:25:12.434Z,20.28
2023-02-24T23:27:39.046Z,20.27
2023-02-24T23:30:09.675Z,20.25
2023-02-24T23:32:36.110Z,20.25
2023-02-24T23:35:02.537Z,20.25
2023-02-24T23:37:28.881Z,20.24
2023-02-24T23:39:55.257Z,20.23
2023-02-24T23:42:21.593Z,20.24
2023-02-24T23:44:49.503Z,20.22
2023-02-24T23:47:16.372Z,20.21
2023-02-24T23:49:48.286Z,20.20
2023-02-24T23:52:14.932Z,20.21
2023-02-24T23:54:41.255Z,20.19
2023-02-24T23:57:07.711Z,20.19
2023-02-24T23:59:34.052Z,20.19
